sensor_id;sensor_type;location;lat;lon;timestamp;P1;durP1;ratioP1;P2;durP2;ratioP2
26824;SDS011;14402;48.178;11.566;2022-09-03T00:00:04;5.7;;;1.3;;
26824;SDS011;14402;48.178;11.566;2022-09-03T00:00:33;5.7;;;1.3;;
26824;SDS011;14402;48.178;11.566;2022-09-03T00:01:04;5.7;;;1.3;;
26824;SDS011;14402;48.178;11.566;2022-09-03T00:01:34;3.8;;;1.3;;
26824;SDS011;14402;48.178;11.566;2022-09-03T00:02:04;1.8;;;1.3;;
26824;SDS011;14402;48.178;11.566;2022-09-03T00:02:35;1.8;;;1.3;;
26824;SDS011;14402;48.178;11.566;2022-09-03T00:03:05;1.8;;;1.3;;
26824;SDS011;14402;48.178;11.566;2022-09-03T00:03:35;2.2;;;1.2;;
26824;SDS011;14402;48.178;11.566;2022-09-03T00:04:04;2.7;;;1.2;;
26824;SDS011;14402;48.178;11.566;2022-09-03T00:04:36;2.7;;;1.2;;
26824;SDS011;14402;48.178;11.566;2022-09-03T00:05:04;2.7;;;1.2;;
26824;SDS011;14402;48.178;11.566;2022-09-03T00:05:34;3.2;;;1.2;;
26824;SDS011;14402;48.178;11.566;2022-09-03T00:06:06;3.8;;;1.3;;
26824;SDS011;14402;48.178;11.566;2022-09-03T00:06:35;3.8;;;1.3;;
26824;SDS011;14402;48.178;11.566;2022-09-03T00:07:05;3.8;;;1.3;;
26824;SDS011;14402;48.178;11.566;2022-09-03T00:07:36;3.2;;;1.3;;
26824;SDS011;14402;48.178;11.566;2022-09-03T00:08:05;2.7;;;1.3;;
26824;SDS011;14402;48.178;11.566;2022-09-03T00:08:35;2.7;;;1.3;;
26824;SDS011;14402;48.178;11.566;2022-09-03T00:09:05;2.7;;;1.3;;
26824;SDS011;14402;48.178;11.566;2022-09-03T00:09:35;2.9;;;1.3;;
26824;SDS011;14402;48.178;11.566;2022-09-03T00:10:06;3.1;;;1.4;;
26824;SDS011;14402;48.178;11.566;2022-09-03T00:10:36;3.1;;;1.4;;
26824;SDS011;14402;48.178;11.566;2022-09-03T00:11:06;3.1;;;1.4;;
26824;SDS011;14402;48.178;11.566;2022-09-03T00:11:45;2.9;;;1.5;;
26824;SDS011;14402;48.178;11.566;2022-09-03T00:12:07;2.8;;;1.5;;
26824;SDS011;14402;48.178;11.566;2022-09-03T00:12:35;2.8;;;1.5;;
26824;SDS011;14402;48.178;11.566;2022-09-03T00:13:05;2.8;;;1.5;;
26824;SDS011;14402;48.178;11.566;2022-09-03T00:13:35;2.9;;;1.5;;
26824;SDS011;14402;48.178;11.566;2022-09-03T00:14:06;3.1;;;1.4;;
26824;SDS011;14402;48.178;11.566;2022-09-03T00:14:36;3.1;;;1.4;;
26824;SDS011;14402;48.178;11.566;2022-09-03T00:15:06;3.1;;;1.4;;
26824;SDS011;14402;48.178;11.566;2022-09-03T00:15:35;2.9;;;1.3;;
26824;SDS011;14402;48.178;11.566;2022-09-03T00:16:06;2.7;;;1.3;;
26824;SDS011;14402;48.178;11.566;2022-09-03T00:16:49;2.7;;;1.3;;
26824;SDS011;14402;48.178;11.566;2022-09-03T00:17:08;2.7;;;1.3;;
26824;SDS011;14402;48.178;11.566;2022-09-03T00:17:36;3.0;;;1.3;;
26824;SDS011;14402;48.178;11.566;2022-09-03T00:18:06;3.2;;;1.4;;
26824;SDS011;14402;48.178;11.566;2022-09-03T00:18:37;3.2;;;1.4;;
26824;SDS011;14402;48.178;11.566;2022-09-03T00:19:06;3.2;;;1.4;;
26824;SDS011;14402;48.178;11.566;2022-09-03T00:19:37;3.8;;;1.3;;
26824;SDS011;14402;48.178;11.566;2022-09-03T00:20:07;4.3;;;1.3;;
26824;SDS011;14402;48.178;11.566;2022-09-03T00:20:38;4.3;;;1.3;;
26824;SDS011;14402;48.178;11.566;2022-09-03T00:21:07;4.3;;;1.3;;
26824;SDS011;14402;48.178;11.566;2022-09-03T00:21:37;3.5;;;1.2;;
26824;SDS011;14402;48.178;11.566;2022-09-03T00:22:08;2.7;;;1.2;;
26824;SDS011;14402;48.178;11.566;2022-09-03T00:22:37;2.7;;;1.2;;
26824;SDS011;14402;48.178;11.566;2022-09-03T00:23:07;2.7;;;1.2;;
26824;SDS011;14402;48.178;11.566;2022-09-03T00:23:37;2.7;;;1.2;;
26824;SDS011;14402;48.178;11.566;2022-09-03T00:24:07;2.6;;;1.3;;
26824;SDS011;14402;48.178;11.566;2022-09-03T00:24:37;2.6;;;1.3;;
26824;SDS011;14402;48.178;11.566;2022-09-03T00:25:08;2.6;;;1.3;;
26824;SDS011;14402;48.178;11.566;2022-09-03T00:25:37;2.7;;;1.3;;
26824;SDS011;14402;48.178;11.566;2022-09-03T00:26:14;2.7;;;1.3;;
26824;SDS011;14402;48.178;11.566;2022-09-03T00:26:37;2.7;;;1.3;;
26824;SDS011;14402;48.178;11.566;2022-09-03T00:27:19;2.7;;;1.3;;
26824;SDS011;14402;48.178;11.566;2022-09-03T00:27:38;2.8;;;1.3;;
26824;SDS011;14402;48.178;11.566;2022-09-03T00:28:10;2.9;;;1.4;;
26824;SDS011;14402;48.178;11.566;2022-09-03T00:28:38;2.9;;;1.4;;
26824;SDS011;14402;48.178;11.566;2022-09-03T00:29:08;2.9;;;1.4;;
26824;SDS011;14402;48.178;11.566;2022-09-03T00:29:38;2.7;;;1.3;;
26824;SDS011;14402;48.178;11.566;2022-09-03T00:30:09;2.4;;;1.3;;
26824;SDS011;14402;48.178;11.566;2022-09-03T00:30:38;2.4;;;1.3;;
26824;SDS011;14402;48.178;11.566;2022-09-03T00:31:09;2.4;;;1.3;;
26824;SDS011;14402;48.178;11.566;2022-09-03T00:31:39;3.0;;;1.3;;
26824;SDS011;14402;48.178;11.566;2022-09-03T00:32:10;3.5;;;1.4;;
26824;SDS011;14402;48.178;11.566;2022-09-03T00:32:39;3.5;;;1.4;;
26824;SDS011;14402;48.178;11.566;2022-09-03T00:33:09;3.5;;;1.4;;
26824;SDS011;14402;48.178;11.566;2022-09-03T00:33:38;2.7;;;1.4;;
26824;SDS011;14402;48.178;11.566;2022-09-03T00:34:09;1.8;;;1.4;;
26824;SDS011;14402;48.178;11.566;2022-09-03T00:34:39;1.8;;;1.4;;
26824;SDS011;14402;48.178;11.566;2022-09-03T00:35:10;1.8;;;1.4;;
26824;SDS011;14402;48.178;11.566;2022-09-03T00:35:40;2.5;;;1.4;;
26824;SDS011;14402;48.178;11.566;2022-09-03T00:36:09;3.3;;;1.4;;
26824;SDS011;14402;48.178;11.566;2022-09-03T00:36:39;3.3;;;1.4;;
26824;SDS011;14402;48.178;11.566;2022-09-03T00:37:09;3.3;;;1.4;;
26824;SDS011;14402;48.178;11.566;2022-09-03T00:37:39;3.0;;;1.3;;
26824;SDS011;14402;48.178;11.566;2022-09-03T00:38:09;2.8;;;1.2;;
26824;SDS011;14402;48.178;11.566;2022-09-03T00:38:39;2.8;;;1.2;;
26824;SDS011;14402;48.178;11.566;2022-09-03T00:39:10;2.8;;;1.2;;
26824;SDS011;14402;48.178;11.566;2022-09-03T00:39:39;2.5;;;1.3;;
26824;SDS011;14402;48.178;11.566;2022-09-03T00:40:10;2.2;;;1.4;;
26824;SDS011;14402;48.178;11.566;2022-09-03T00:40:44;2.2;;;1.4;;
26824;SDS011;14402;48.178;11.566;2022-09-03T00:41:13;2.2;;;1.4;;
26824;SDS011;14402;48.178;11.566;2022-09-03T00:41:43;1.9;;;1.3;;
26824;SDS011;14402;48.178;11.566;2022-09-03T00:42:16;1.5;;;1.3;;
26824;SDS011;14402;48.178;11.566;2022-09-03T00:42:41;1.5;;;1.3;;
26824;SDS011;14402;48.178;11.566;2022-09-03T00:43:12;1.5;;;1.3;;
26824;SDS011;14402;48.178;11.566;2022-09-03T00:43:43;2.5;;;1.4;;
26824;SDS011;14402;48.178;11.566;2022-09-03T00:44:13;3.4;;;1.5;;
26824;SDS011;14402;48.178;11.566;2022-09-03T00:44:46;3.4;;;1.5;;
26824;SDS011;14402;48.178;11.566;2022-09-03T00:45:14;3.4;;;1.5;;
26824;SDS011;14402;48.178;11.566;2022-09-03T00:45:42;3.3;;;1.4;;
26824;SDS011;14402;48.178;11.566;2022-09-03T00:46:13;3.3;;;1.2;;
26824;SDS011;14402;48.178;11.566;2022-09-03T00:46:41;3.3;;;1.2;;
26824;SDS011;14402;48.178;11.566;2022-09-03T00:47:12;3.3;;;1.2;;
26824;SDS011;14402;48.178;11.566;2022-09-03T00:47:44;2.9;;;1.3;;
26824;SDS011;14402;48.178;11.566;2022-09-03T00:48:13;2.5;;;1.4;;
26824;SDS011;14402;48.178;11.566;2022-09-03T00:48:45;2.5;;;1.4;;
26824;SDS011;14402;48.178;11.566;2022-09-03T00:49:16;2.5;;;1.4;;
26824;SDS011;14402;48.178;11.566;2022-09-03T00:49:44;2.7;;;1.4;;
26824;SDS011;14402;48.178;11.566;2022-09-03T00:50:13;2.9;;;1.4;;
26824;SDS011;14402;48.178;11.566;2022-09-03T00:50:44;2.9;;;1.4;;
26824;SDS011;14402;48.178;11.566;2022-09-03T00:51:12;2.9;;;1.4;;
26824;SDS011;14402;48.178;11.566;2022-09-03T00:51:42;3.0;;;1.4;;
26824;SDS011;14402;48.178;11.566;2022-09-03T00:52:12;3.1;;;1.4;;
26824;SDS011;14402;48.178;11.566;2022-09-03T00:52:43;3.1;;;1.4;;
26824;SDS011;14402;48.178;11.566;2022-09-03T00:53:12;3.1;;;1.4;;
26824;SDS011;14402;48.178;11.566;2022-09-03T00:53:43;3.7;;;1.5;;
26824;SDS011;14402;48.178;11.566;2022-09-03T00:54:13;4.3;;;1.6;;
26824;SDS011;14402;48.178;11.566;2022-09-03T00:54:42;4.3;;;1.6;;
26824;SDS011;14402;48.178;11.566;2022-09-03T00:55:15;4.3;;;1.6;;
26824;SDS011;14402;48.178;11.566;2022-09-03T00:55:44;3.6;;;1.5;;
26824;SDS011;14402;48.178;11.566;2022-09-03T00:56:13;2.8;;;1.5;;
26824;SDS011;14402;48.178;11.566;2022-09-03T00:56:43;2.8;;;1.5;;
26824;SDS011;14402;48.178;11.566;2022-09-03T00:57:17;2.8;;;1.5;;
26824;SDS011;14402;48.178;11.566;2022-09-03T00:57:45;2.6;;;1.5;;
26824;SDS011;14402;48.178;11.566;2022-09-03T00:58:17;2.4;;;1.4;;
26824;SDS011;14402;48.178;11.566;2022-09-03T00:58:47;2.4;;;1.4;;
26824;SDS011;14402;48.178;11.566;2022-09-03T00:59:16;2.4;;;1.4;;
26824;SDS011;14402;48.178;11.566;2022-09-03T00:59:43;2.7;;;1.4;;
26824;SDS011;14402;48.178;11.566;2022-09-03T01:00:13;2.9;;;1.4;;
26824;SDS011;14402;48.178;11.566;2022-09-03T01:00:42;2.9;;;1.4;;
26824;SDS011;14402;48.178;11.566;2022-09-03T01:01:14;2.9;;;1.4;;
26824;SDS011;14402;48.178;11.566;2022-09-03T01:01:44;2.7;;;1.3;;
26824;SDS011;14402;48.178;11.566;2022-09-03T01:02:14;2.4;;;1.2;;
26824;SDS011;14402;48.178;11.566;2022-09-03T01:02:46;2.4;;;1.2;;
26824;SDS011;14402;48.178;11.566;2022-09-03T01:03:15;2.4;;;1.2;;
26824;SDS011;14402;48.178;11.566;2022-09-03T01:03:46;2.2;;;1.3;;
26824;SDS011;14402;48.178;11.566;2022-09-03T01:04:23;1.9;;;1.4;;
26824;SDS011;14402;48.178;11.566;2022-09-03T01:04:47;1.9;;;1.4;;
26824;SDS011;14402;48.178;11.566;2022-09-03T01:05:17;1.9;;;1.4;;
26824;SDS011;14402;48.178;11.566;2022-09-03T01:05:48;2.3;;;1.5;;
26824;SDS011;14402;48.178;11.566;2022-09-03T01:06:16;2.8;;;1.7;;
26824;SDS011;14402;48.178;11.566;2022-09-03T01:06:45;2.8;;;1.7;;
26824;SDS011;14402;48.178;11.566;2022-09-03T01:07:17;2.8;;;1.7;;
26824;SDS011;14402;48.178;11.566;2022-09-03T01:07:45;2.5;;;1.5;;
26824;SDS011;14402;48.178;11.566;2022-09-03T01:08:19;2.3;;;1.4;;
26824;SDS011;14402;48.178;11.566;2022-09-03T01:08:49;2.3;;;1.4;;
26824;SDS011;14402;48.178;11.566;2022-09-03T01:09:21;2.3;;;1.4;;
26824;SDS011;14402;48.178;11.566;2022-09-03T01:09:46;2.2;;;1.4;;
26824;SDS011;14402;48.178;11.566;2022-09-03T01:10:16;2.1;;;1.4;;
26824;SDS011;14402;48.178;11.566;2022-09-03T01:10:45;2.1;;;1.4;;
26824;SDS011;14402;48.178;11.566;2022-09-03T01:11:16;2.1;;;1.4;;
26824;SDS011;14402;48.178;11.566;2022-09-03T01:11:47;2.8;;;1.4;;
26824;SDS011;14402;48.178;11.566;2022-09-03T01:12:17;3.4;;;1.4;;
26824;SDS011;14402;48.178;11.566;2022-09-03T01:12:46;3.4;;;1.4;;
26824;SDS011;14402;48.178;11.566;2022-09-03T01:13:15;3.4;;;1.4;;
26824;SDS011;14402;48.178;11.566;2022-09-03T01:13:45;2.6;;;1.4;;
26824;SDS011;14402;48.178;11.566;2022-09-03T01:14:17;1.8;;;1.4;;
26824;SDS011;14402;48.178;11.566;2022-09-03T01:14:48;1.8;;;1.4;;
26824;SDS011;14402;48.178;11.566;2022-09-03T01:15:16;1.8;;;1.4;;
26824;SDS011;14402;48.178;11.566;2022-09-03T01:15:48;3.8;;;1.4;;
26824;SDS011;14402;48.178;11.566;2022-09-03T01:16:16;5.8;;;1.4;;
26824;SDS011;14402;48.178;11.566;2022-09-03T01:16:47;5.8;;;1.4;;
26824;SDS011;14402;48.178;11.566;2022-09-03T01:17:19;5.8;;;1.4;;
26824;SDS011;14402;48.178;11.566;2022-09-03T01:17:49;4.4;;;1.5;;
26824;SDS011;14402;48.178;11.566;2022-09-03T01:18:18;3.0;;;1.5;;
26824;SDS011;14402;48.178;11.566;2022-09-03T01:18:47;3.0;;;1.5;;
26824;SDS011;14402;48.178;11.566;2022-09-03T01:19:21;3.0;;;1.5;;
26824;SDS011;14402;48.178;11.566;2022-09-03T01:19:54;3.1;;;1.5;;
26824;SDS011;14402;48.178;11.566;2022-09-03T01:20:19;3.2;;;1.5;;
26824;SDS011;14402;48.178;11.566;2022-09-03T01:20:49;3.2;;;1.5;;
26824;SDS011;14402;48.178;11.566;2022-09-03T01:21:21;3.2;;;1.5;;
26824;SDS011;14402;48.178;11.566;2022-09-03T01:21:50;2.7;;;1.5;;
26824;SDS011;14402;48.178;11.566;2022-09-03T01:22:22;2.1;;;1.4;;
26824;SDS011;14402;48.178;11.566;2022-09-03T01:22:53;2.1;;;1.4;;
26824;SDS011;14402;48.178;11.566;2022-09-03T01:23:36;2.1;;;1.4;;
26824;SDS011;14402;48.178;11.566;2022-09-03T01:23:47;2.8;;;1.5;;
26824;SDS011;14402;48.178;11.566;2022-09-03T01:24:22;3.4;;;1.6;;
26824;SDS011;14402;48.178;11.566;2022-09-03T01:24:53;3.4;;;1.6;;
26824;SDS011;14402;48.178;11.566;2022-09-03T01:25:19;3.4;;;1.6;;
26824;SDS011;14402;48.178;11.566;2022-09-03T01:25:49;2.5;;;1.5;;
26824;SDS011;14402;48.178;11.566;2022-09-03T01:26:23;1.5;;;1.3;;
26824;SDS011;14402;48.178;11.566;2022-09-03T01:26:52;1.5;;;1.3;;
26824;SDS011;14402;48.178;11.566;2022-09-03T01:27:20;1.5;;;1.3;;
26824;SDS011;14402;48.178;11.566;2022-09-03T01:27:56;1.8;;;1.4;;
26824;SDS011;14402;48.178;11.566;2022-09-03T01:28:21;2.0;;;1.5;;
26824;SDS011;14402;48.178;11.566;2022-09-03T01:28:49;2.0;;;1.5;;
26824;SDS011;14402;48.178;11.566;2022-09-03T01:29:18;2.0;;;1.5;;
26824;SDS011;14402;48.178;11.566;2022-09-03T01:29:49;3.8;;;1.5;;
26824;SDS011;14402;48.178;11.566;2022-09-03T01:30:18;5.5;;;1.4;;
26824;SDS011;14402;48.178;11.566;2022-09-03T01:30:49;5.5;;;1.4;;
26824;SDS011;14402;48.178;11.566;2022-09-03T01:31:20;5.5;;;1.4;;
26824;SDS011;14402;48.178;11.566;2022-09-03T01:31:49;4.0;;;1.3;;
26824;SDS011;14402;48.178;11.566;2022-09-03T01:32:18;2.5;;;1.2;;
26824;SDS011;14402;48.178;11.566;2022-09-03T01:32:50;2.5;;;1.2;;
26824;SDS011;14402;48.178;11.566;2022-09-03T01:33:18;2.5;;;1.2;;
26824;SDS011;14402;48.178;11.566;2022-09-03T01:33:49;2.8;;;1.4;;
26824;SDS011;14402;48.178;11.566;2022-09-03T01:34:19;3.1;;;1.6;;
26824;SDS011;14402;48.178;11.566;2022-09-03T01:34:50;3.1;;;1.6;;
26824;SDS011;14402;48.178;11.566;2022-09-03T01:35:20;3.1;;;1.6;;
26824;SDS011;14402;48.178;11.566;2022-09-03T01:35:50;3.0;;;1.4;;
26824;SDS011;14402;48.178;11.566;2022-09-03T01:36:19;2.9;;;1.2;;
26824;SDS011;14402;48.178;11.566;2022-09-03T01:36:51;2.9;;;1.2;;
26824;SDS011;14402;48.178;11.566;2022-09-03T01:37:20;2.9;;;1.2;;
26824;SDS011;14402;48.178;11.566;2022-09-03T01:37:55;3.7;;;1.2;;
26824;SDS011;14402;48.178;11.566;2022-09-03T01:38:20;4.5;;;1.3;;
26824;SDS011;14402;48.178;11.566;2022-09-03T01:38:49;4.5;;;1.3;;
26824;SDS011;14402;48.178;11.566;2022-09-03T01:39:21;4.5;;;1.3;;
26824;SDS011;14402;48.178;11.566;2022-09-03T01:39:53;3.8;;;1.3;;
26824;SDS011;14402;48.178;11.566;2022-09-03T01:40:21;3.0;;;1.3;;
26824;SDS011;14402;48.178;11.566;2022-09-03T01:40:52;3.0;;;1.3;;
26824;SDS011;14402;48.178;11.566;2022-09-03T01:41:21;3.0;;;1.3;;
26824;SDS011;14402;48.178;11.566;2022-09-03T01:42:32;2.8;;;1.3;;
26824;SDS011;14402;48.178;11.566;2022-09-03T01:42:38;2.5;;;1.4;;
26824;SDS011;14402;48.178;11.566;2022-09-03T01:42:54;2.5;;;1.4;;
26824;SDS011;14402;48.178;11.566;2022-09-03T01:43:26;2.5;;;1.4;;
26824;SDS011;14402;48.178;11.566;2022-09-03T01:43:51;2.7;;;1.4;;
26824;SDS011;14402;48.178;11.566;2022-09-03T01:44:21;2.8;;;1.4;;
26824;SDS011;14402;48.178;11.566;2022-09-03T01:45:55;2.8;;;1.4;;
26824;SDS011;14402;48.178;11.566;2022-09-03T01:46:00;2.8;;;1.4;;
26824;SDS011;14402;48.178;11.566;2022-09-03T01:46:01;3.6;;;1.5;;
26824;SDS011;14402;48.178;11.566;2022-09-03T01:46:21;4.3;;;1.5;;
26824;SDS011;14402;48.178;11.566;2022-09-03T01:46:51;4.3;;;1.5;;
26824;SDS011;14402;48.178;11.566;2022-09-03T01:47:21;4.3;;;1.5;;
26824;SDS011;14402;48.178;11.566;2022-09-03T01:47:54;3.1;;;1.4;;
26824;SDS011;14402;48.178;11.566;2022-09-03T01:48:25;1.8;;;1.3;;
26824;SDS011;14402;48.178;11.566;2022-09-03T01:48:51;1.8;;;1.3;;
26824;SDS011;14402;48.178;11.566;2022-09-03T01:49:22;1.8;;;1.3;;
26824;SDS011;14402;48.178;11.566;2022-09-03T01:49:52;2.5;;;1.3;;
26824;SDS011;14402;48.178;11.566;2022-09-03T01:50:24;3.3;;;1.3;;
26824;SDS011;14402;48.178;11.566;2022-09-03T01:50:52;3.3;;;1.3;;
26824;SDS011;14402;48.178;11.566;2022-09-03T01:51:21;3.3;;;1.3;;
26824;SDS011;14402;48.178;11.566;2022-09-03T01:51:53;3.5;;;1.3;;
26824;SDS011;14402;48.178;11.566;2022-09-03T01:52:23;3.8;;;1.3;;
26824;SDS011;14402;48.178;11.566;2022-09-03T01:52:53;3.8;;;1.3;;
26824;SDS011;14402;48.178;11.566;2022-09-03T01:53:25;3.8;;;1.3;;
26824;SDS011;14402;48.178;11.566;2022-09-03T01:53:55;3.2;;;1.2;;
26824;SDS011;14402;48.178;11.566;2022-09-03T01:54:25;2.6;;;1.2;;
26824;SDS011;14402;48.178;11.566;2022-09-03T01:54:56;2.6;;;1.2;;
26824;SDS011;14402;48.178;11.566;2022-09-03T01:55:25;2.6;;;1.2;;
26824;SDS011;14402;48.178;11.566;2022-09-03T01:55:55;3.0;;;1.3;;
26824;SDS011;14402;48.178;11.566;2022-09-03T01:56:24;3.5;;;1.4;;
26824;SDS011;14402;48.178;11.566;2022-09-03T01:57:00;3.5;;;1.4;;
26824;SDS011;14402;48.178;11.566;2022-09-03T01:57:39;3.5;;;1.4;;
26824;SDS011;14402;48.178;11.566;2022-09-03T01:57:52;2.8;;;1.5;;
26824;SDS011;14402;48.178;11.566;2022-09-03T01:58:23;2.1;;;1.7;;
26824;SDS011;14402;48.178;11.566;2022-09-03T01:58:53;2.1;;;1.7;;
26824;SDS011;14402;48.178;11.566;2022-09-03T01:59:22;2.1;;;1.7;;
26824;SDS011;14402;48.178;11.566;2022-09-03T01:59:54;2.3;;;1.5;;
26824;SDS011;14402;48.178;11.566;2022-09-03T02:00:22;2.5;;;1.3;;
26824;SDS011;14402;48.178;11.566;2022-09-03T02:00:54;2.5;;;1.3;;
26824;SDS011;14402;48.178;11.566;2022-09-03T02:01:23;2.5;;;1.3;;
26824;SDS011;14402;48.178;11.566;2022-09-03T02:01:55;2.3;;;1.3;;
26824;SDS011;14402;48.178;11.566;2022-09-03T02:02:24;2.2;;;1.4;;
26824;SDS011;14402;48.178;11.566;2022-09-03T02:02:53;2.2;;;1.4;;
26824;SDS011;14402;48.178;11.566;2022-09-03T02:03:23;2.2;;;1.4;;
26824;SDS011;14402;48.178;11.566;2022-09-03T02:03:53;1.9;;;1.3;;
26824;SDS011;14402;48.178;11.566;2022-09-03T02:04:24;1.6;;;1.2;;
26824;SDS011;14402;48.178;11.566;2022-09-03T02:04:55;1.6;;;1.2;;
26824;SDS011;14402;48.178;11.566;2022-09-03T02:05:24;1.6;;;1.2;;
26824;SDS011;14402;48.178;11.566;2022-09-03T02:05:53;1.7;;;1.2;;
26824;SDS011;14402;48.178;11.566;2022-09-03T02:06:23;1.8;;;1.3;;
26824;SDS011;14402;48.178;11.566;2022-09-03T02:06:55;1.8;;;1.3;;
26824;SDS011;14402;48.178;11.566;2022-09-03T02:07:24;1.8;;;1.3;;
26824;SDS011;14402;48.178;11.566;2022-09-03T02:07:55;3.2;;;1.5;;
26824;SDS011;14402;48.178;11.566;2022-09-03T02:08:23;4.7;;;1.6;;
26824;SDS011;14402;48.178;11.566;2022-09-03T02:08:54;4.7;;;1.6;;
26824;SDS011;14402;48.178;11.566;2022-09-03T02:09:24;4.7;;;1.6;;
26824;SDS011;14402;48.178;11.566;2022-09-03T02:09:54;4.6;;;1.5;;
26824;SDS011;14402;48.178;11.566;2022-09-03T02:10:24;4.5;;;1.5;;
26824;SDS011;14402;48.178;11.566;2022-09-03T02:10:55;4.5;;;1.5;;
26824;SDS011;14402;48.178;11.566;2022-09-03T02:11:24;4.5;;;1.5;;
26824;SDS011;14402;48.178;11.566;2022-09-03T02:11:54;4.7;;;1.5;;
26824;SDS011;14402;48.178;11.566;2022-09-03T02:12:24;4.8;;;1.5;;
26824;SDS011;14402;48.178;11.566;2022-09-03T02:12:56;4.8;;;1.5;;
26824;SDS011;14402;48.178;11.566;2022-09-03T02:13:25;4.8;;;1.5;;
26824;SDS011;14402;48.178;11.566;2022-09-03T02:13:54;3.6;;;1.4;;
26824;SDS011;14402;48.178;11.566;2022-09-03T02:14:25;2.3;;;1.3;;
26824;SDS011;14402;48.178;11.566;2022-09-03T02:14:55;2.3;;;1.3;;
26824;SDS011;14402;48.178;11.566;2022-09-03T02:15:25;2.3;;;1.3;;
26824;SDS011;14402;48.178;11.566;2022-09-03T02:15:56;2.4;;;1.3;;
26824;SDS011;14402;48.178;11.566;2022-09-03T02:16:26;2.5;;;1.3;;
26824;SDS011;14402;48.178;11.566;2022-09-03T02:16:55;2.5;;;1.3;;
26824;SDS011;14402;48.178;11.566;2022-09-03T02:17:26;2.5;;;1.3;;
26824;SDS011;14402;48.178;11.566;2022-09-03T02:17:56;2.2;;;1.2;;
26824;SDS011;14402;48.178;11.566;2022-09-03T02:18:25;1.8;;;1.2;;
26824;SDS011;14402;48.178;11.566;2022-09-03T02:18:56;1.8;;;1.2;;
26824;SDS011;14402;48.178;11.566;2022-09-03T02:19:26;1.8;;;1.2;;
26824;SDS011;14402;48.178;11.566;2022-09-03T02:19:55;2.0;;;1.3;;
26824;SDS011;14402;48.178;11.566;2022-09-03T02:20:26;2.2;;;1.4;;
26824;SDS011;14402;48.178;11.566;2022-09-03T02:20:56;2.2;;;1.4;;
26824;SDS011;14402;48.178;11.566;2022-09-03T02:21:27;2.2;;;1.4;;
26824;SDS011;14402;48.178;11.566;2022-09-03T02:21:56;2.1;;;1.4;;
26824;SDS011;14402;48.178;11.566;2022-09-03T02:22:26;2.0;;;1.4;;
26824;SDS011;14402;48.178;11.566;2022-09-03T02:22:56;2.0;;;1.4;;
26824;SDS011;14402;48.178;11.566;2022-09-03T02:23:26;2.0;;;1.4;;
26824;SDS011;14402;48.178;11.566;2022-09-03T02:23:56;1.8;;;1.3;;
26824;SDS011;14402;48.178;11.566;2022-09-03T02:24:26;1.6;;;1.2;;
26824;SDS011;14402;48.178;11.566;2022-09-03T02:24:56;1.6;;;1.2;;
26824;SDS011;14402;48.178;11.566;2022-09-03T02:25:28;1.6;;;1.2;;
26824;SDS011;14402;48.178;11.566;2022-09-03T02:25:57;2.4;;;1.4;;
26824;SDS011;14402;48.178;11.566;2022-09-03T02:26:26;3.2;;;1.6;;
26824;SDS011;14402;48.178;11.566;2022-09-03T02:26:57;3.2;;;1.6;;
26824;SDS011;14402;48.178;11.566;2022-09-03T02:27:27;3.2;;;1.6;;
26824;SDS011;14402;48.178;11.566;2022-09-03T02:27:57;2.7;;;1.5;;
26824;SDS011;14402;48.178;11.566;2022-09-03T02:28:27;2.1;;;1.5;;
26824;SDS011;14402;48.178;11.566;2022-09-03T02:28:57;2.1;;;1.5;;
26824;SDS011;14402;48.178;11.566;2022-09-03T02:29:27;2.1;;;1.5;;
26824;SDS011;14402;48.178;11.566;2022-09-03T02:29:57;2.2;;;1.5;;
26824;SDS011;14402;48.178;11.566;2022-09-03T02:30:27;2.2;;;1.4;;
26824;SDS011;14402;48.178;11.566;2022-09-03T02:30:57;2.2;;;1.4;;
26824;SDS011;14402;48.178;11.566;2022-09-03T02:31:27;2.2;;;1.4;;
26824;SDS011;14402;48.178;11.566;2022-09-03T02:31:57;2.8;;;1.5;;
26824;SDS011;14402;48.178;11.566;2022-09-03T02:32:27;3.4;;;1.5;;
26824;SDS011;14402;48.178;11.566;2022-09-03T02:32:58;3.4;;;1.5;;
26824;SDS011;14402;48.178;11.566;2022-09-03T02:33:35;3.4;;;1.5;;
26824;SDS011;14402;48.178;11.566;2022-09-03T02:33:58;3.6;;;1.4;;
26824;SDS011;14402;48.178;11.566;2022-09-03T02:34:28;3.8;;;1.3;;
26824;SDS011;14402;48.178;11.566;2022-09-03T02:34:58;3.8;;;1.3;;
26824;SDS011;14402;48.178;11.566;2022-09-03T02:35:28;3.8;;;1.3;;
26824;SDS011;14402;48.178;11.566;2022-09-03T02:35:58;3.0;;;1.3;;
26824;SDS011;14402;48.178;11.566;2022-09-03T02:36:29;2.3;;;1.3;;
26824;SDS011;14402;48.178;11.566;2022-09-03T02:36:58;2.3;;;1.3;;
26824;SDS011;14402;48.178;11.566;2022-09-03T02:37:28;2.3;;;1.3;;
26824;SDS011;14402;48.178;11.566;2022-09-03T02:38:07;2.3;;;1.3;;
26824;SDS011;14402;48.178;11.566;2022-09-03T02:38:28;2.4;;;1.3;;
26824;SDS011;14402;48.178;11.566;2022-09-03T02:38:58;2.4;;;1.3;;
26824;SDS011;14402;48.178;11.566;2022-09-03T02:39:29;2.4;;;1.3;;
26824;SDS011;14402;48.178;11.566;2022-09-03T02:39:59;2.5;;;1.5;;
26824;SDS011;14402;48.178;11.566;2022-09-03T02:40:29;2.6;;;1.6;;
26824;SDS011;14402;48.178;11.566;2022-09-03T02:40:59;2.6;;;1.6;;
26824;SDS011;14402;48.178;11.566;2022-09-03T02:41:29;2.6;;;1.6;;
26824;SDS011;14402;48.178;11.566;2022-09-03T02:41:59;2.4;;;1.5;;
26824;SDS011;14402;48.178;11.566;2022-09-03T02:42:29;2.3;;;1.3;;
26824;SDS011;14402;48.178;11.566;2022-09-03T02:42:59;2.3;;;1.3;;
26824;SDS011;14402;48.178;11.566;2022-09-03T02:43:30;2.3;;;1.3;;
26824;SDS011;14402;48.178;11.566;2022-09-03T02:44:00;3.0;;;1.3;;
26824;SDS011;14402;48.178;11.566;2022-09-03T02:44:30;3.7;;;1.4;;
26824;SDS011;14402;48.178;11.566;2022-09-03T02:45:02;3.7;;;1.4;;
26824;SDS011;14402;48.178;11.566;2022-09-03T02:45:30;3.7;;;1.4;;
26824;SDS011;14402;48.178;11.566;2022-09-03T02:46:00;3.3;;;1.3;;
26824;SDS011;14402;48.178;11.566;2022-09-03T02:46:31;3.0;;;1.3;;
26824;SDS011;14402;48.178;11.566;2022-09-03T02:47:00;3.0;;;1.3;;
26824;SDS011;14402;48.178;11.566;2022-09-03T02:47:30;3.0;;;1.3;;
26824;SDS011;14402;48.178;11.566;2022-09-03T02:48:00;2.8;;;1.4;;
26824;SDS011;14402;48.178;11.566;2022-09-03T02:48:30;2.6;;;1.5;;
26824;SDS011;14402;48.178;11.566;2022-09-03T02:49:00;2.6;;;1.5;;
26824;SDS011;14402;48.178;11.566;2022-09-03T02:49:31;2.6;;;1.5;;
26824;SDS011;14402;48.178;11.566;2022-09-03T02:50:00;2.6;;;1.4;;
26824;SDS011;14402;48.178;11.566;2022-09-03T02:50:30;2.6;;;1.2;;
26824;SDS011;14402;48.178;11.566;2022-09-03T02:51:01;2.6;;;1.2;;
26824;SDS011;14402;48.178;11.566;2022-09-03T02:51:31;2.6;;;1.2;;
26824;SDS011;14402;48.178;11.566;2022-09-03T02:52:02;2.9;;;1.2;;
26824;SDS011;14402;48.178;11.566;2022-09-03T02:52:31;3.3;;;1.3;;
26824;SDS011;14402;48.178;11.566;2022-09-03T02:53:01;3.3;;;1.3;;
26824;SDS011;14402;48.178;11.566;2022-09-03T02:53:31;3.3;;;1.3;;
26824;SDS011;14402;48.178;11.566;2022-09-03T02:54:01;3.3;;;1.3;;
26824;SDS011;14402;48.178;11.566;2022-09-03T02:54:31;3.3;;;1.4;;
26824;SDS011;14402;48.178;11.566;2022-09-03T02:55:01;3.3;;;1.4;;
26824;SDS011;14402;48.178;11.566;2022-09-03T02:55:31;3.3;;;1.4;;
26824;SDS011;14402;48.178;11.566;2022-09-03T02:56:01;3.3;;;1.5;;
26824;SDS011;14402;48.178;11.566;2022-09-03T02:56:31;3.4;;;1.6;;
26824;SDS011;14402;48.178;11.566;2022-09-03T02:57:02;3.4;;;1.6;;
26824;SDS011;14402;48.178;11.566;2022-09-03T02:57:32;3.4;;;1.6;;
26824;SDS011;14402;48.178;11.566;2022-09-03T02:58:02;3.0;;;1.5;;
26824;SDS011;14402;48.178;11.566;2022-09-03T02:58:32;2.5;;;1.5;;
26824;SDS011;14402;48.178;11.566;2022-09-03T02:59:02;2.5;;;1.5;;
26824;SDS011;14402;48.178;11.566;2022-09-03T02:59:32;2.5;;;1.5;;
26824;SDS011;14402;48.178;11.566;2022-09-03T03:00:02;2.8;;;1.5;;
26824;SDS011;14402;48.178;11.566;2022-09-03T03:00:32;3.2;;;1.5;;
26824;SDS011;14402;48.178;11.566;2022-09-03T03:01:02;3.2;;;1.5;;
26824;SDS011;14402;48.178;11.566;2022-09-03T03:01:33;3.2;;;1.5;;
26824;SDS011;14402;48.178;11.566;2022-09-03T03:02:02;2.7;;;1.5;;
26824;SDS011;14402;48.178;11.566;2022-09-03T03:02:32;2.2;;;1.5;;
26824;SDS011;14402;48.178;11.566;2022-09-03T03:03:03;2.2;;;1.5;;
26824;SDS011;14402;48.178;11.566;2022-09-03T03:03:33;2.2;;;1.5;;